»·PEaware :: AAL619 KSNA-KPHX

AAL619 :: KSNA-KPHX

FLIGHT INFORMATION

Flight Status: Arrived
Operator:
American Airlines
More flights by this operator :: More flights under this callsign
Pilot: Guillermo C. (14369)
Aircraft: BOEING 757-200
(B752)
More flights by this aircraft type
Origin: KSNA John Wayne-Orange Co
United States
Destination: KPHX Phoenix Sky Harbor Intl
United States
More flights between these airports :: More routes between these airports
Route: +PIGGN1 CNERY BLH HYDRR1
File this flight plan on PilotEdge
Remarks:
Altitude:
(Current/Filed)
37,000ft
Speed:
(Current/Filed)
436kts
Departed: 12-Aug-17 02:44 PM
Arrived: 12-Aug-17 03:44 PM
Distance/Time
Traveled:
294nm/1:00
Distance/Time
To Go:
Arrived

Flight Plot

Page will automatically refresh every two minutes.

Flight plan parsing failed; only flown route is shown


Map Options




Map Legend


Flown Route
Filed Route
Departure Airport
Arrival Airport
Navaid (VOR, NDB)
Fix

Horizontal Profiles

Position Reports

Time Latitude Longitude Heading Altitude Ground
Speed
12-Aug-17 14:14 33.679052 -117.862623 117 68ft 0kts
12-Aug-17 14:15 33.679052 -117.862623 117 68ft 0kts
12-Aug-17 14:16 33.679052 -117.862623 117 68ft 0kts
12-Aug-17 14:17 33.679052 -117.862623 117 68ft 0kts
12-Aug-17 14:18 33.679052 -117.862623 117 68ft 0kts
12-Aug-17 14:19 33.679052 -117.862623 117 68ft 0kts
12-Aug-17 14:20 33.679052 -117.862623 117 68ft 0kts
12-Aug-17 14:21 33.679052 -117.862623 117 67ft 0kts
12-Aug-17 14:22 33.679052 -117.862623 117 67ft 0kts
12-Aug-17 14:23 33.679052 -117.862623 117 67ft 0kts
12-Aug-17 14:24 33.679052 -117.862623 117 67ft 0kts
12-Aug-17 14:25 33.679052 -117.862623 117 67ft 0kts
12-Aug-17 14:26 33.679052 -117.862623 117 67ft 0kts
12-Aug-17 14:27 33.679052 -117.862623 117 67ft 0kts
12-Aug-17 14:28 33.679052 -117.862623 117 67ft 0kts
12-Aug-17 14:29 33.679052 -117.862623 117 67ft 0kts
12-Aug-17 14:30 33.679052 -117.862623 117 67ft 0kts
12-Aug-17 14:31 33.679052 -117.862623 117 67ft 0kts
12-Aug-17 14:32 33.679052 -117.862623 117 67ft 0kts
12-Aug-17 14:33 33.679052 -117.862623 117 67ft 0kts
12-Aug-17 14:34 33.679052 -117.862623 117 67ft 0kts
12-Aug-17 14:35 33.679052 -117.862623 117 67ft 0kts
12-Aug-17 14:36 33.679052 -117.862623 117 67ft 0kts
12-Aug-17 14:37 33.679220 -117.863022 113 67ft 3kts
12-Aug-17 14:38 33.679069 -117.863571 26 67ft 0kts
12-Aug-17 14:39 33.679069 -117.863571 26 67ft 0kts
12-Aug-17 14:40 33.679069 -117.863571 26 67ft 0kts
12-Aug-17 14:41 33.680558 -117.862924 310 68ft 0kts
12-Aug-17 14:42 33.681118 -117.864048 297 68ft 7kts
12-Aug-17 14:43 33.681132 -117.864080 297 68ft 0kts
12-Aug-17 14:44 33.681171 -117.864182 294 68ft 0kts
12-Aug-17 14:45 33.681213 -117.864293 293 67ft 6kts
12-Aug-17 14:46 33.680921 -117.865518 209 67ft 0kts
12-Aug-17 14:47 33.661863 -117.876912 203 780ft 176kts
12-Aug-17 14:48 33.607741 -117.890094 187 3975ft 232kts
12-Aug-17 14:49 33.540740 -117.879429 154 7266ft 264kts
12-Aug-17 14:50 33.490204 -117.816988 116 10562ft 293kts
12-Aug-17 14:51 33.478484 -117.710728 77 12692ft 363kts
12-Aug-17 14:52 33.525057 -117.603100 60 13000ft 365kts
12-Aug-17 14:53 33.570646 -117.495067 80 13002ft 366kts
12-Aug-17 14:54 33.548825 -117.378064 112 14062ft 373kts
12-Aug-17 14:55 33.512873 -117.262202 112 17203ft 384kts
12-Aug-17 14:56 33.502183 -117.131701 94 19780ft 408kts
12-Aug-17 14:57 33.499063 -116.993689 94 22159ft 423kts
12-Aug-17 14:58 33.496591 -116.850500 92 24299ft 438kts
12-Aug-17 14:59 33.494025 -116.703867 94 24903ft 444kts
12-Aug-17 15:00 33.490764 -116.556445 93 24865ft 444kts
12-Aug-17 15:01 33.488631 -116.408568 92 24827ft 444kts
12-Aug-17 15:02 33.486402 -116.261508 93 24816ft 444kts
12-Aug-17 15:03 33.484092 -116.113554 93 24816ft 444kts
12-Aug-17 15:04 33.502433 -115.968119 72 24822ft 449kts
12-Aug-17 15:05 33.543186 -115.826719 71 24817ft 449kts
12-Aug-17 15:06 33.584176 -115.685740 71 24818ft 449kts
12-Aug-17 15:07 33.621723 -115.543293 83 24816ft 447kts
12-Aug-17 15:08 33.616197 -115.395586 95 24825ft 444kts
12-Aug-17 15:09 33.610512 -115.249057 92 24846ft 444kts
12-Aug-17 15:10 33.605949 -115.101697 96 24864ft 443kts
12-Aug-17 15:11 33.600312 -114.954451 92 24825ft 443kts
12-Aug-17 15:12 33.595676 -114.807148 93 24825ft 442kts
12-Aug-17 15:13 33.575454 -114.665210 106 23583ft 428kts
12-Aug-17 15:14 33.548060 -114.527990 104 22840ft 424kts
12-Aug-17 15:15 33.520829 -114.390451 105 22836ft 424kts
12-Aug-17 15:16 33.493801 -114.254002 105 22834ft 424kts
12-Aug-17 15:17 33.466775 -114.116829 105 22835ft 424kts
12-Aug-17 15:18 33.439517 -113.979708 105 22834ft 424kts
12-Aug-17 15:19 33.412605 -113.842795 105 22835ft 424kts
12-Aug-17 15:20 33.385142 -113.705529 106 22844ft 424kts
12-Aug-17 15:21 33.357357 -113.569208 105 22870ft 424kts
12-Aug-17 15:22 33.330590 -113.434424 103 21881ft 415kts
12-Aug-17 15:23 33.308338 -113.299250 103 21888ft 417kts
12-Aug-17 15:24 33.286798 -113.163504 101 21889ft 417kts
12-Aug-17 15:25 33.274759 -113.026746 90 21229ft 413kts
12-Aug-17 15:26 33.276901 -112.899018 89 20317ft 356kts
12-Aug-17 15:27 33.283030 -112.783297 82 18142ft 346kts
12-Aug-17 15:28 33.293755 -112.671222 83 16101ft 336kts
12-Aug-17 15:29 33.303987 -112.562307 82 14776ft 327kts
12-Aug-17 15:30 33.313775 -112.456633 84 13466ft 319kts
12-Aug-17 15:31 33.322883 -112.354024 83 12184ft 312kts
12-Aug-17 15:32 33.331898 -112.255185 83 11222ft 294kts
12-Aug-17 15:33 33.340130 -112.166187 83 10306ft 263kts
12-Aug-17 15:34 33.346528 -112.080449 91 8990ft 254kts
12-Aug-17 15:35 33.345386 -111.996778 91 7851ft 252kts
12-Aug-17 15:36 33.344768 -111.915067 88 7057ft 245kts
12-Aug-17 15:37 33.345936 -111.834191 88 5727ft 242kts
12-Aug-17 15:38 33.347072 -111.755207 88 4269ft 241kts
12-Aug-17 15:39 33.352261 -111.677419 57 4044ft 236kts
12-Aug-17 15:40 33.406746 -111.678729 319 4097ft 220kts
12-Aug-17 15:41 33.441717 -111.732826 265 4074ft 215kts
12-Aug-17 15:42 33.440574 -111.804354 268 4056ft 215kts
12-Aug-17 15:43 33.440606 -111.869929 268 3108ft 161kts
12-Aug-17 15:44 33.440662 -111.918026 268 2351ft 143kts
12-Aug-17 15:45 33.440659 -111.965334 269 1630ft 145kts
12-Aug-17 15:46 33.440827 -112.006343 270 1134ft 46kts
12-Aug-17 15:47 33.439796 -112.011312 217 1130ft 0kts
12-Aug-17 15:48 33.439795 -112.011313 217 1130ft 0kts
12-Aug-17 15:49 33.439569 -112.011500 209 1130ft 7kts
12-Aug-17 15:50 33.439026 -112.006187 88 1134ft 22kts
12-Aug-17 15:51 33.437406 -112.003494 180 1133ft 0kts
12-Aug-17 15:52 33.437406 -112.003494 180 1133ft 0kts
12-Aug-17 15:53 33.437406 -112.003494 180 1133ft 0kts
12-Aug-17 15:54 33.437406 -112.003494 180 1133ft 0kts
12-Aug-17 15:55 33.437406 -112.003494 180 1133ft 0kts
12-Aug-17 15:56 33.437406 -112.003494 180 1133ft 0kts

Navigation Log

Ident Type
Flight plan parsing failed, navigation log unavailable